Time;durP1;ratioP1;P1;durP2;ratioP2;P2;SDS_P1;SDS_P2;PMS_P1;PMS_P2;Temp;Humidity;BMP_temperature;BMP_pressure;BME280_temperature;BME280_humidity;BME280_pressure;Samples;Min_cycle;Max_cycle;Signal;HPM_P1;HPM_P2
2021/05/24 00:02:16;;;;;;;3.30;1.10;;;;;;;;;;4932946;29;20110;-54
2021/05/24 00:04:44;;;;;;;5.00;1.10;;;;;;;;;;4934217;29;20035;-52
2021/05/24 00:07:11;;;;;;;6.45;1.00;;;;;;;;;;4926889;29;20028;-46
2021/05/24 00:09:39;;;;;;;8.13;1.10;;;;;;;;;;4926978;29;20400;-41
2021/05/24 00:12:06;;;;;;;4.65;1.30;;;;;;;;;;4923441;29;20043;-42
2021/05/24 00:14:35;;;;;;;5.93;1.35;;;;;;;;;;4922803;29;20389;-44
2021/05/24 00:17:02;;;;;;;16.08;1.30;;;;;;;;;;4927708;29;20028;-39
2021/05/24 00:19:29;;;;;;;5.30;0.93;;;;;;;;;;4931117;29;20046;-44
2021/05/24 00:21:56;;;;;;;4.38;1.13;;;;;;;;;;4932269;29;20032;-41
2021/05/24 00:24:23;;;;;;;5.25;1.10;;;;;;;;;;4934110;29;20085;-40
2021/05/24 00:26:50;;;;;;;3.05;0.82;;;;;;;;;;4923436;29;20028;-41
2021/05/24 00:29:21;;;;;;;4.90;0.90;;;;;;;;;;4931500;29;20023;-39
2021/05/24 00:31:48;;;;;;;9.27;1.35;;;;;;;;;;4929720;29;20075;-42
2021/05/24 00:34:15;;;;;;;4.72;0.98;;;;;;;;;;4931486;29;20023;-40
2021/05/24 00:36:42;;;;;;;7.57;1.13;;;;;;;;;;4931457;29;20031;-39
2021/05/24 00:39:09;;;;;;;6.57;1.23;;;;;;;;;;4933811;29;20040;-43
2021/05/24 00:41:38;;;;;;;8.43;1.02;;;;;;;;;;4931836;29;20051;-41
2021/05/24 00:44:05;;;;;;;4.05;0.95;;;;;;;;;;4930434;29;20038;-43
2021/05/24 00:46:33;;;;;;;3.42;0.77;;;;;;;;;;4931901;29;20031;-45
2021/05/24 00:49:00;;;;;;;7.00;1.00;;;;;;;;;;4931280;29;20111;-42
2021/05/24 00:51:28;;;;;;;3.63;0.98;;;;;;;;;;4928799;29;20554;-42
2021/05/24 00:53:56;;;;;;;11.18;1.23;;;;;;;;;;4933987;29;20036;-39
2021/05/24 00:56:23;;;;;;;5.95;0.85;;;;;;;;;;4931695;29;20027;-41
2021/05/24 00:58:51;;;;;;;13.75;1.00;;;;;;;;;;4918892;29;20032;-41
2021/05/24 01:01:18;;;;;;;5.95;0.93;;;;;;;;;;4927453;29;20028;-51
2021/05/24 01:03:45;;;;;;;5.88;0.88;;;;;;;;;;4932956;29;20050;-47
2021/05/24 01:06:12;;;;;;;7.05;0.90;;;;;;;;;;4931758;29;20055;-49
2021/05/24 01:08:40;;;;;;;7.95;1.70;;;;;;;;;;4928010;29;20449;-44
2021/05/24 01:11:07;;;;;;;5.13;1.00;;;;;;;;;;4931901;29;20415;-42
2021/05/24 01:13:34;;;;;;;10.95;1.48;;;;;;;;;;4932445;29;20022;-46
2021/05/24 01:16:01;;;;;;;11.13;1.15;;;;;;;;;;4932006;29;20042;-45
2021/05/24 01:18:28;;;;;;;9.93;1.00;;;;;;;;;;4931783;29;20023;-42
2021/05/24 01:20:56;;;;;;;12.90;1.45;;;;;;;;;;4931516;29;20035;-47
2021/05/24 01:23:27;;;;;;;9.40;1.20;;;;;;;;;;4927376;29;20087;-50
2021/05/24 01:25:54;;;;;;;8.25;1.20;;;;;;;;;;4917953;29;20539;-50
2021/05/24 01:28:21;;;;;;;5.78;1.20;;;;;;;;;;4924608;29;20055;-48
2021/05/24 01:30:50;;;;;;;5.40;1.02;;;;;;;;;;4928016;29;20063;-48
2021/05/24 01:33:17;;;;;;;2.97;1.02;;;;;;;;;;4928871;29;20051;-47
2021/05/24 01:35:44;;;;;;;9.73;1.00;;;;;;;;;;4927687;29;20547;-50
2021/05/24 01:38:12;;;;;;;7.75;1.27;;;;;;;;;;4923256;29;20040;-47
2021/05/24 01:40:40;;;;;;;8.75;1.20;;;;;;;;;;4920481;29;20048;-49
2021/05/24 01:43:07;;;;;;;6.30;1.00;;;;;;;;;;4922763;29;20023;-46
2021/05/24 01:45:34;;;;;;;5.60;1.00;;;;;;;;;;4924178;29;20391;-50
2021/05/24 01:48:01;;;;;;;4.40;1.20;;;;;;;;;;4924224;29;20023;-46
2021/05/24 01:50:28;;;;;;;8.23;1.45;;;;;;;;;;4924448;29;20028;-46
2021/05/24 01:52:55;;;;;;;11.65;1.40;;;;;;;;;;4923767;29;20114;-46
2021/05/24 01:55:22;;;;;;;5.57;1.67;;;;;;;;;;4916833;29;20028;-49
2021/05/24 01:57:50;;;;;;;11.52;2.30;;;;;;;;;;4926123;29;20101;-48
2021/05/24 02:00:20;;;;;;;15.73;3.75;;;;;;;;;;4925325;29;20130;-55
2021/05/24 02:02:48;;;;;;;13.20;4.22;;;;;;;;;;4915112;29;20024;-47
2021/05/24 02:05:16;;;;;;;11.77;4.80;;;;;;;;;;4924697;29;20477;-45
2021/05/24 02:07:43;;;;;;;16.63;4.55;;;;;;;;;;4925174;29;20023;-43
2021/05/24 02:10:11;;;;;;;8.48;4.22;;;;;;;;;;4924520;29;20099;-50
2021/05/24 02:12:38;;;;;;;8.73;4.75;;;;;;;;;;4923512;29;20443;-47
2021/05/24 02:15:06;;;;;;;14.25;4.68;;;;;;;;;;4923804;29;20110;-43
2021/05/24 02:17:33;;;;;;;15.18;4.97;;;;;;;;;;4926438;29;20027;-52
2021/05/24 02:20:00;;;;;;;12.45;4.80;;;;;;;;;;4925545;29;20106;-51
2021/05/24 02:22:28;;;;;;;14.50;4.85;;;;;;;;;;4925994;29;20111;-42
2021/05/24 02:24:55;;;;;;;15.68;5.10;;;;;;;;;;4923374;29;20028;-48
2021/05/24 02:27:23;;;;;;;11.80;4.80;;;;;;;;;;4926428;29;20103;-50
2021/05/24 02:29:50;;;;;;;11.15;4.45;;;;;;;;;;4925822;29;20028;-44
2021/05/24 02:32:17;;;;;;;14.75;4.20;;;;;;;;;;4925855;29;20171;-46
2021/05/24 02:34:44;;;;;;;12.10;4.63;;;;;;;;;;4922255;29;20075;-44
2021/05/24 02:37:11;;;;;;;13.90;4.75;;;;;;;;;;4926904;29;20107;-45
2021/05/24 02:39:38;;;;;;;12.93;4.07;;;;;;;;;;4928123;29;20028;-44
2021/05/24 02:42:06;;;;;;;10.65;3.90;;;;;;;;;;4925123;29;20040;-43
2021/05/24 02:44:33;;;;;;;9.95;3.65;;;;;;;;;;4926729;29;20452;-41
2021/05/24 02:47:00;;;;;;;14.20;4.18;;;;;;;;;;4922782;29;20032;-42
2021/05/24 02:49:27;;;;;;;12.20;3.35;;;;;;;;;;4934771;29;20030;-43
2021/05/24 02:51:54;;;;;;;17.05;3.55;;;;;;;;;;4936116;29;20525;-43
2021/05/24 02:54:21;;;;;;;8.48;3.20;;;;;;;;;;4933752;29;20026;-41
2021/05/24 02:56:48;;;;;;;12.68;3.30;;;;;;;;;;4937440;29;20028;-42
2021/05/24 02:59:15;;;;;;;11.85;3.05;;;;;;;;;;4937469;29;20127;-43
2021/05/24 03:01:42;;;;;;;9.95;3.47;;;;;;;;;;4937135;29;20019;-43
2021/05/24 03:04:11;;;;;;;16.10;3.22;;;;;;;;;;4935859;29;20050;-44
2021/05/24 03:06:38;;;;;;;7.90;2.63;;;;;;;;;;4937339;29;20026;-46
2021/05/24 03:09:06;;;;;;;7.07;2.63;;;;;;;;;;4936896;29;20024;-42
2021/05/24 03:11:34;;;;;;;8.20;2.60;;;;;;;;;;4937184;29;20570;-46
2021/05/24 03:14:02;;;;;;;9.52;2.55;;;;;;;;;;4936897;29;20404;-42
2021/05/24 03:16:31;;;;;;;12.95;2.40;;;;;;;;;;4937166;29;20047;-43
2021/05/24 03:18:59;;;;;;;12.15;2.33;;;;;;;;;;4936731;29;20384;-46
2021/05/24 03:21:27;;;;;;;9.25;2.33;;;;;;;;;;4936768;29;20035;-46
2021/05/24 03:23:54;;;;;;;11.02;2.28;;;;;;;;;;4937586;29;20028;-43
2021/05/24 03:26:22;;;;;;;8.60;2.17;;;;;;;;;;4936413;29;20036;-48
2021/05/24 03:28:50;;;;;;;8.77;1.90;;;;;;;;;;4936898;29;20442;-47
2021/05/24 03:31:17;;;;;;;6.88;1.80;;;;;;;;;;4932416;29;20460;-41
2021/05/24 03:33:45;;;;;;;8.98;1.63;;;;;;;;;;4929300;29;20038;-44
2021/05/24 03:36:13;;;;;;;9.75;1.90;;;;;;;;;;4934994;29;20075;-48
2021/05/24 03:38:40;;;;;;;7.07;1.52;;;;;;;;;;4936243;29;20372;-45
2021/05/24 03:41:07;;;;;;;7.00;1.48;;;;;;;;;;4928224;29;20500;-42
2021/05/24 03:43:36;;;;;;;13.52;2.20;;;;;;;;;;4935728;29;20028;-47
2021/05/24 03:46:03;;;;;;;7.95;1.65;;;;;;;;;;4935411;29;20119;-44
2021/05/24 03:48:30;;;;;;;7.72;1.55;;;;;;;;;;4936183;29;20016;-48
2021/05/24 03:50:57;;;;;;;7.38;1.20;;;;;;;;;;4931035;29;20024;-42
2021/05/24 03:53:25;;;;;;;6.78;1.30;;;;;;;;;;4932692;29;20035;-44
2021/05/24 03:55:52;;;;;;;6.60;1.40;;;;;;;;;;4930164;29;20403;-44
2021/05/24 03:58:19;;;;;;;11.45;1.90;;;;;;;;;;4933004;29;20063;-43
2021/05/24 04:00:47;;;;;;;8.45;1.35;;;;;;;;;;4917669;29;20399;-43
2021/05/24 04:03:14;;;;;;;4.68;1.45;;;;;;;;;;4935522;29;20503;-46
2021/05/24 04:05:42;;;;;;;3.95;1.30;;;;;;;;;;4932605;29;20016;-43
2021/05/24 04:08:09;;;;;;;5.47;1.10;;;;;;;;;;4935326;29;20361;-43
2021/05/24 04:10:41;;;;;;;8.70;1.65;;;;;;;;;;4935142;29;20044;-42
2021/05/24 04:13:08;;;;;;;2.80;1.23;;;;;;;;;;4934148;29;20444;-47
2021/05/24 04:15:36;;;;;;;6.45;1.50;;;;;;;;;;4934996;29;20094;-43
2021/05/24 04:18:10;;;;;;;5.30;1.10;;;;;;;;;;4935001;29;20019;-40
2021/05/24 04:20:37;;;;;;;4.05;1.08;;;;;;;;;;4935340;29;20074;-42
2021/05/24 04:23:04;;;;;;;4.13;1.13;;;;;;;;;;4934810;29;20045;-45
2021/05/24 04:25:31;;;;;;;8.25;1.50;;;;;;;;;;4934052;29;20032;-42
2021/05/24 04:27:58;;;;;;;6.40;1.17;;;;;;;;;;4934861;29;20159;-41
2021/05/24 04:30:25;;;;;;;8.73;1.23;;;;;;;;;;4935393;29;20476;-41
2021/05/24 04:32:52;;;;;;;6.53;1.35;;;;;;;;;;4935007;29;20114;-41
2021/05/24 04:35:19;;;;;;;7.40;1.17;;;;;;;;;;4935361;29;20020;-41
2021/05/24 04:37:46;;;;;;;9.32;1.70;;;;;;;;;;4934820;29;20024;-43
2021/05/24 04:40:14;;;;;;;4.28;1.15;;;;;;;;;;4935414;29;20058;-41
2021/05/24 04:42:41;;;;;;;6.32;1.35;;;;;;;;;;4934778;29;20039;-41
2021/05/24 04:45:08;;;;;;;3.65;1.08;;;;;;;;;;4935283;29;20032;-42
2021/05/24 04:47:35;;;;;;;6.03;1.30;;;;;;;;;;4934741;29;20028;-51
2021/05/24 04:50:03;;;;;;;6.20;0.95;;;;;;;;;;4935238;29;20075;-48
2021/05/24 04:52:30;;;;;;;2.00;0.77;;;;;;;;;;4934573;29;20030;-44
2021/05/24 04:54:57;;;;;;;3.78;1.00;;;;;;;;;;4935092;29;20027;-48
2021/05/24 04:57:24;;;;;;;3.70;0.90;;;;;;;;;;4935151;29;20024;-44
2021/05/24 04:59:51;;;;;;;4.10;1.00;;;;;;;;;;4926743;29;20036;-46
2021/05/24 05:02:18;;;;;;;3.60;0.90;;;;;;;;;;4934818;29;20396;-42
2021/05/24 05:04:46;;;;;;;3.65;1.15;;;;;;;;;;4934519;29;20028;-43
2021/05/24 05:07:13;;;;;;;4.07;0.90;;;;;;;;;;4934922;29;20436;-46
2021/05/24 05:09:40;;;;;;;3.33;0.75;;;;;;;;;;4934034;29;20027;-47
2021/05/24 05:12:07;;;;;;;5.15;1.17;;;;;;;;;;4934838;29;20067;-44
2021/05/24 05:14:34;;;;;;;4.43;1.02;;;;;;;;;;4934322;29;20518;-45
2021/05/24 05:17:01;;;;;;;3.25;1.15;;;;;;;;;;4934861;29;20102;-44
2021/05/24 05:19:28;;;;;;;4.10;1.05;;;;;;;;;;4934559;29;20420;-45
2021/05/24 05:21:55;;;;;;;7.32;0.90;;;;;;;;;;4934735;29;20098;-47
2021/05/24 05:24:22;;;;;;;3.08;0.80;;;;;;;;;;4934375;29;20543;-45
2021/05/24 05:26:49;;;;;;;3.45;1.40;;;;;;;;;;4922543;29;20115;-44
2021/05/24 05:29:16;;;;;;;3.13;0.73;;;;;;;;;;4926485;29;20024;-43
2021/05/24 05:31:43;;;;;;;3.67;0.90;;;;;;;;;;4934265;29;20034;-44
2021/05/24 05:34:10;;;;;;;3.58;0.70;;;;;;;;;;4934894;29;20032;-44
2021/05/24 05:36:37;;;;;;;1.80;0.60;;;;;;;;;;4929636;29;20021;-47
2021/05/24 05:39:05;;;;;;;3.90;0.80;;;;;;;;;;4914308;29;22343;-44
2021/05/24 05:41:34;;;;;;;1.98;0.55;;;;;;;;;;4915029;29;20029;-45
2021/05/24 05:44:01;;;;;;;2.90;0.70;;;;;;;;;;4915641;29;20495;-47
2021/05/24 05:46:28;;;;;;;2.40;0.68;;;;;;;;;;4915029;29;20496;-45
2021/05/24 05:48:55;;;;;;;6.90;0.90;;;;;;;;;;4926070;29;20102;-44
2021/05/24 05:51:22;;;;;;;4.53;0.75;;;;;;;;;;4937202;29;20024;-44
2021/05/24 05:53:49;;;;;;;2.33;0.60;;;;;;;;;;4938278;29;20651;-47
2021/05/24 05:56:16;;;;;;;3.60;0.90;;;;;;;;;;4937570;29;20024;-46
2021/05/24 05:58:43;;;;;;;3.22;0.70;;;;;;;;;;4938144;29;20027;-47
2021/05/24 06:01:10;;;;;;;2.72;0.60;;;;;;;;;;4937562;29;20481;-42
2021/05/24 06:03:38;;;;;;;2.70;0.70;;;;;;;;;;4938213;29;20484;-45
2021/05/24 06:06:05;;;;;;;3.40;0.70;;;;;;;;;;4937333;29;20105;-45
2021/05/24 06:08:32;;;;;;;1.85;0.60;;;;;;;;;;4937898;29;20515;-47
2021/05/24 06:10:59;;;;;;;2.40;0.68;;;;;;;;;;4937655;29;20099;-45
2021/05/24 06:13:26;;;;;;;2.42;0.65;;;;;;;;;;4936114;29;20035;-47
2021/05/24 06:15:54;;;;;;;2.75;0.60;;;;;;;;;;4937632;29;20050;-44
2021/05/24 06:18:21;;;;;;;1.58;0.40;;;;;;;;;;4937367;29;20038;-45
2021/05/24 06:20:48;;;;;;;1.85;0.70;;;;;;;;;;4937785;29;20095;-43
2021/05/24 06:23:15;;;;;;;1.20;0.50;;;;;;;;;;4937444;29;20042;-42
2021/05/24 06:25:43;;;;;;;1.25;0.50;;;;;;;;;;4937622;29;20031;-45
2021/05/24 06:28:10;;;;;;;3.28;0.95;;;;;;;;;;4937230;29;20046;-45
2021/05/24 06:30:38;;;;;;;3.15;0.70;;;;;;;;;;4937717;29;20024;-42
2021/05/24 06:33:05;;;;;;;2.25;0.75;;;;;;;;;;4937194;29;20023;-43
2021/05/24 06:35:33;;;;;;;2.38;0.57;;;;;;;;;;4937752;29;20518;-42
2021/05/24 06:38:00;;;;;;;2.85;0.88;;;;;;;;;;4936911;29;20205;-42
2021/05/24 06:40:27;;;;;;;2.40;0.55;;;;;;;;;;4937191;29;20485;-42
2021/05/24 06:42:54;;;;;;;5.72;0.77;;;;;;;;;;4937125;29;20739;-41
2021/05/24 06:45:21;;;;;;;1.75;0.57;;;;;;;;;;4937409;29;20098;-42
2021/05/24 06:47:48;;;;;;;1.63;0.40;;;;;;;;;;4937108;29;20035;-43
2021/05/24 06:50:16;;;;;;;3.08;0.50;;;;;;;;;;4937020;29;20023;-43
2021/05/24 06:52:43;;;;;;;1.25;0.60;;;;;;;;;;4937329;29;20558;-44
2021/05/24 06:55:11;;;;;;;2.42;0.60;;;;;;;;;;4936677;29;20035;-41
2021/05/24 06:57:38;;;;;;;1.98;0.70;;;;;;;;;;4937103;29;20472;-42
2021/05/24 07:00:11;;;;;;;2.28;0.40;;;;;;;;;;4936557;29;20039;-40
2021/05/24 07:02:39;;;;;;;1.92;0.70;;;;;;;;;;4935975;29;20020;-44
2021/05/24 07:05:07;;;;;;;2.65;0.60;;;;;;;;;;4936747;29;20055;-42
2021/05/24 07:07:35;;;;;;;1.60;0.55;;;;;;;;;;4936735;29;20106;-42
2021/05/24 07:10:02;;;;;;;0.60;0.50;;;;;;;;;;4936711;29;20042;-41
2021/05/24 07:12:29;;;;;;;1.02;0.50;;;;;;;;;;4937277;29;20060;-42
2021/05/24 07:14:56;;;;;;;0.93;0.50;;;;;;;;;;4936935;29;20023;-43
2021/05/24 07:17:23;;;;;;;0.68;0.30;;;;;;;;;;4936964;29;20099;-44
2021/05/24 07:19:51;;;;;;;0.90;0.40;;;;;;;;;;4935271;29;20036;-43
2021/05/24 07:22:18;;;;;;;1.20;0.43;;;;;;;;;;4937100;29;20024;-42
2021/05/24 07:24:45;;;;;;;1.73;0.50;;;;;;;;;;4937062;29;20091;-42
2021/05/24 07:27:12;;;;;;;1.13;0.60;;;;;;;;;;4936241;29;20028;-43
2021/05/24 07:29:39;;;;;;;3.17;0.40;;;;;;;;;;4936902;29;20059;-42
2021/05/24 07:32:10;;;;;;;2.88;0.63;;;;;;;;;;4936395;29;20099;-41
2021/05/24 07:34:38;;;;;;;1.88;0.43;;;;;;;;;;4936863;29;20518;-43
2021/05/24 07:37:06;;;;;;;1.25;0.45;;;;;;;;;;4936157;29;20028;-42
2021/05/24 07:39:33;;;;;;;0.93;0.40;;;;;;;;;;4936436;29;20432;-43
2021/05/24 07:42:01;;;;;;;0.93;0.40;;;;;;;;;;4936136;29;20511;-42
2021/05/24 07:44:29;;;;;;;1.33;0.50;;;;;;;;;;4936697;29;20498;-43
2021/05/24 07:46:57;;;;;;;1.95;0.40;;;;;;;;;;4935963;29;20028;-44
2021/05/24 07:49:24;;;;;;;1.48;0.45;;;;;;;;;;4936574;29;20112;-44
2021/05/24 07:51:51;;;;;;;1.05;0.38;;;;;;;;;;4934635;29;20040;-42
2021/05/24 07:54:19;;;;;;;1.38;0.50;;;;;;;;;;4936405;29;20027;-44
2021/05/24 07:56:46;;;;;;;2.28;0.40;;;;;;;;;;4935914;29;20062;-43
2021/05/24 07:59:14;;;;;;;0.85;0.50;;;;;;;;;;4936304;29;20020;-42
2021/05/24 08:01:41;;;;;;;0.73;0.40;;;;;;;;;;4936024;29;20039;-47
2021/05/24 08:04:09;;;;;;;1.00;0.43;;;;;;;;;;4936217;29;20016;-43
2021/05/24 08:06:36;;;;;;;0.60;0.30;;;;;;;;;;4936140;29;20039;-43
2021/05/24 08:09:03;;;;;;;0.93;0.50;;;;;;;;;;4935568;29;20024;-41
2021/05/24 08:11:30;;;;;;;0.70;0.35;;;;;;;;;;4933758;29;20087;-44
2021/05/24 08:13:57;;;;;;;1.10;0.30;;;;;;;;;;4925098;29;20020;-42
2021/05/24 08:16:25;;;;;;;1.73;0.40;;;;;;;;;;4936149;29;20027;-42
2021/05/24 08:18:52;;;;;;;1.48;0.50;;;;;;;;;;4935115;29;20020;-42
2021/05/24 08:21:19;;;;;;;1.45;0.32;;;;;;;;;;4935934;29;20473;-45
2021/05/24 08:23:47;;;;;;;0.98;0.40;;;;;;;;;;4935566;29;20032;-43
2021/05/24 08:26:14;;;;;;;0.88;0.35;;;;;;;;;;4935829;29;20038;-42
2021/05/24 08:28:41;;;;;;;2.13;0.52;;;;;;;;;;4935157;29;20102;-42
2021/05/24 08:31:09;;;;;;;0.57;0.30;;;;;;;;;;4920318;29;20020;-41
2021/05/24 08:33:36;;;;;;;0.80;0.40;;;;;;;;;;4916052;29;20080;-48
2021/05/24 08:36:03;;;;;;;0.50;0.40;;;;;;;;;;4916805;29;20056;-52
2021/05/24 08:38:31;;;;;;;1.80;0.30;;;;;;;;;;4916587;29;20024;-49
2021/05/24 08:41:05;;;;;;;0.60;0.25;;;;;;;;;;4916353;29;20433;-48
2021/05/24 08:43:32;;;;;;;0.75;0.45;;;;;;;;;;4916565;29;20028;-49
2021/05/24 08:46:01;;;;;;;0.93;0.40;;;;;;;;;;4916343;29;20397;-48
2021/05/24 08:48:28;;;;;;;1.27;0.20;;;;;;;;;;4916239;29;20445;-46
2021/05/24 08:50:55;;;;;;;0.52;0.30;;;;;;;;;;4916173;29;20035;-52
2021/05/24 08:53:22;;;;;;;0.47;0.35;;;;;;;;;;4916593;29;20024;-43
2021/05/24 08:55:49;;;;;;;0.65;0.30;;;;;;;;;;4916043;29;20028;-47
2021/05/24 08:58:16;;;;;;;0.90;0.40;;;;;;;;;;4916273;29;20057;-47
2021/05/24 09:00:43;;;;;;;1.25;0.40;;;;;;;;;;4915951;29;20036;-44
2021/05/24 09:03:21;;;;;;;1.42;0.40;;;;;;;;;;4916292;29;20049;-46
2021/05/24 09:05:48;;;;;;;1.25;0.50;;;;;;;;;;4915852;29;20047;-45
2021/05/24 09:08:15;;;;;;;1.33;0.50;;;;;;;;;;4915941;29;20028;-41
2021/05/24 09:10:46;;;;;;;2.10;0.50;;;;;;;;;;4915715;29;20176;-47
2021/05/24 09:13:15;;;;;;;1.45;0.40;;;;;;;;;;4916406;29;20381;-47
2021/05/24 09:15:44;;;;;;;1.40;0.50;;;;;;;;;;4915404;29;20389;-45
2021/05/24 09:18:11;;;;;;;0.65;0.30;;;;;;;;;;4916215;29;20103;-47
2021/05/24 09:20:42;;;;;;;1.85;0.50;;;;;;;;;;4914350;29;20036;-46
2021/05/24 09:23:14;;;;;;;0.80;0.30;;;;;;;;;;4916100;29;20118;-48
2021/05/24 09:25:52;;;;;;;0.28;0.20;;;;;;;;;;4915107;29;20028;-43
2021/05/24 09:28:26;;;;;;;1.35;0.40;;;;;;;;;;4915701;29;20031;-47
2021/05/24 09:30:54;;;;;;;0.68;0.32;;;;;;;;;;4915878;29;20020;-43
2021/05/24 09:33:21;;;;;;;0.65;0.20;;;;;;;;;;4915854;29;20032;-45
2021/05/24 09:35:50;;;;;;;0.85;0.40;;;;;;;;;;4915888;29;20024;-45
2021/05/24 09:38:18;;;;;;;1.13;0.45;;;;;;;;;;4915423;29;20107;-41
2021/05/24 09:40:56;;;;;;;2.38;0.30;;;;;;;;;;4915672;29;20119;-46
2021/05/24 09:43:33;;;;;;;1.85;0.40;;;;;;;;;;4915272;29;20033;-42
2021/05/24 09:46:11;;;;;;;1.30;0.38;;;;;;;;;;4915900;29;20036;-45
2021/05/24 09:48:38;;;;;;;0.98;0.22;;;;;;;;;;4915250;29;20100;-43
2021/05/24 09:51:07;;;;;;;1.23;0.30;;;;;;;;;;4915985;29;20382;-47
2021/05/24 09:53:34;;;;;;;2.33;0.30;;;;;;;;;;4915249;29;20125;-45
2021/05/24 09:56:09;;;;;;;1.98;0.30;;;;;;;;;;4915815;29;20529;-44
2021/05/24 09:58:36;;;;;;;0.50;0.30;;;;;;;;;;4915303;29;20111;-44
2021/05/24 10:01:16;;;;;;;0.30;0.30;;;;;;;;;;4915722;29;20043;-45
2021/05/24 10:03:44;;;;;;;1.65;0.50;;;;;;;;;;4915325;29;20036;-48
2021/05/24 10:06:11;;;;;;;0.40;0.30;;;;;;;;;;4915625;29;20016;-45
2021/05/24 10:08:40;;;;;;;2.67;0.50;;;;;;;;;;4915073;29;20024;-47
2021/05/24 10:11:07;;;;;;;0.63;0.38;;;;;;;;;;4915549;29;20040;-46
2021/05/24 10:13:34;;;;;;;1.30;0.55;;;;;;;;;;4915110;29;20032;-42
2021/05/24 10:16:02;;;;;;;1.17;0.50;;;;;;;;;;4915624;29;20099;-48
2021/05/24 10:18:30;;;;;;;1.13;0.30;;;;;;;;;;4915191;29;20040;-42
2021/05/24 10:21:01;;;;;;;1.13;0.50;;;;;;;;;;4915173;29;20036;-42
2021/05/24 10:23:30;;;;;;;0.40;0.40;;;;;;;;;;4915271;29;20020;-40
2021/05/24 10:26:01;;;;;;;0.50;0.30;;;;;;;;;;4915575;29;20028;-41
2021/05/24 10:28:29;;;;;;;0.35;0.30;;;;;;;;;;4915807;29;20067;-46
2021/05/24 10:30:57;;;;;;;0.57;0.30;;;;;;;;;;4914767;29;20028;-44
2021/05/24 10:33:27;;;;;;;1.13;0.50;;;;;;;;;;4915271;29;20477;-42
2021/05/24 10:35:54;;;;;;;0.70;0.30;;;;;;;;;;4915775;29;20059;-42
2021/05/24 10:38:23;;;;;;;0.98;0.40;;;;;;;;;;4918753;29;20025;-42
2021/05/24 10:40:50;;;;;;;0.68;0.43;;;;;;;;;;4918096;29;20556;-42
2021/05/24 10:43:18;;;;;;;0.47;0.38;;;;;;;;;;4918952;29;20032;-42
2021/05/24 10:45:46;;;;;;;2.45;0.38;;;;;;;;;;4918054;29;20039;-41
2021/05/24 10:48:19;;;;;;;1.88;0.40;;;;;;;;;;4918465;29;20027;-42
2021/05/24 10:51:15;;;;;;;0.30;0.25;;;;;;;;;;4918052;29;20596;-43
2021/05/24 10:53:43;;;;;;;0.50;0.40;;;;;;;;;;4914092;29;20373;-46
2021/05/24 10:56:17;;;;;;;0.45;0.30;;;;;;;;;;4917995;29;20024;-42
2021/05/24 10:58:44;;;;;;;2.22;0.40;;;;;;;;;;4918425;29;20031;-41
2021/05/24 11:01:12;;;;;;;0.50;0.40;;;;;;;;;;4917788;29;20484;-40
2021/05/24 11:03:43;;;;;;;0.80;0.30;;;;;;;;;;4918281;29;20393;-41
2021/05/24 11:06:13;;;;;;;0.70;0.30;;;;;;;;;;4922702;29;20036;-41
2021/05/24 11:08:44;;;;;;;0.93;0.30;;;;;;;;;;4937120;29;20039;-42
2021/05/24 11:11:24;;;;;;;3.03;0.50;;;;;;;;;;4950159;29;20151;-45
2021/05/24 11:13:57;;;;;;;0.93;0.50;;;;;;;;;;4956325;29;20050;-41
2021/05/24 11:16:25;;;;;;;0.75;0.38;;;;;;;;;;4955790;29;20658;-41
2021/05/24 11:18:52;;;;;;;1.20;0.43;;;;;;;;;;4956187;29;20031;-44
2021/05/24 11:21:23;;;;;;;1.33;0.32;;;;;;;;;;4955507;29;20098;-41
2021/05/24 11:26:59;;;;;;;1.63;0.40;;;;;;;;;;4956536;29;20472;-42
2021/05/24 11:29:19;;;;;;;0.73;0.47;;;;;;;;;;4954142;29;20043;-41
2021/05/24 11:31:56;;;;;;;0.40;0.30;;;;;;;;;;4955336;29;20027;-41
2021/05/24 11:34:38;;;;;;;1.25;0.45;;;;;;;;;;4956084;29;20019;-42
2021/05/24 11:37:06;;;;;;;0.77;0.45;;;;;;;;;;4955624;29;20126;-41
2021/05/24 11:39:37;;;;;;;1.00;0.50;;;;;;;;;;4955482;29;20027;-42
2021/05/24 11:42:20;;;;;;;0.70;0.40;;;;;;;;;;4955745;29;20105;-42
2021/05/24 11:44:49;;;;;;;0.57;0.45;;;;;;;;;;4955330;29;20024;-42
2021/05/24 11:47:20;;;;;;;0.57;0.38;;;;;;;;;;4955140;28;20039;-42
2021/05/24 11:49:48;;;;;;;1.33;0.30;;;;;;;;;;4954947;29;20019;-41
2021/05/24 11:52:17;;;;;;;1.23;0.45;;;;;;;;;;4955421;29;20028;-42
2021/05/24 11:54:48;;;;;;;1.80;0.40;;;;;;;;;;4955297;29;20019;-47
2021/05/24 11:57:15;;;;;;;0.63;0.50;;;;;;;;;;4955129;29;20102;-41
2021/05/24 11:59:42;;;;;;;0.80;0.40;;;;;;;;;;4954831;29;20039;-42
2021/05/24 12:02:10;;;;;;;2.35;0.30;;;;;;;;;;4955349;29;20034;-39
2021/05/24 12:04:38;;;;;;;0.47;0.32;;;;;;;;;;4954815;29;20031;-40
2021/05/24 12:07:06;;;;;;;0.35;0.30;;;;;;;;;;4955342;29;20027;-42
2021/05/24 12:09:50;;;;;;;0.70;0.60;;;;;;;;;;4954523;28;20023;-42
2021/05/24 12:12:20;;;;;;;0.70;0.40;;;;;;;;;;4955291;29;20170;-42
2021/05/24 12:14:51;;;;;;;0.98;0.40;;;;;;;;;;4954996;29;20027;-40
2021/05/24 12:17:23;;;;;;;0.50;0.47;;;;;;;;;;4955296;29;20033;-40
2021/05/24 12:19:52;;;;;;;2.25;0.40;;;;;;;;;;4954478;29;20027;-40
2021/05/24 12:22:21;;;;;;;1.25;0.50;;;;;;;;;;4955053;29;20039;-40
2021/05/24 12:24:48;;;;;;;2.53;0.45;;;;;;;;;;4954602;29;20043;-41
2021/05/24 12:27:16;;;;;;;1.42;0.40;;;;;;;;;;4955053;29;20054;-41
2021/05/24 12:29:53;;;;;;;0.65;0.47;;;;;;;;;;4954439;29;20103;-44
2021/05/24 12:32:47;;;;;;;0.73;0.40;;;;;;;;;;4954792;29;20384;-42
2021/05/24 12:35:16;;;;;;;1.75;0.50;;;;;;;;;;4951759;29;20484;-40
2021/05/24 12:37:48;;;;;;;1.23;0.50;;;;;;;;;;4954882;29;20027;-42
2021/05/24 12:40:15;;;;;;;1.98;0.43;;;;;;;;;;4954692;29;20031;-41
2021/05/24 12:42:43;;;;;;;0.95;0.50;;;;;;;;;;4953998;29;20153;-40
2021/05/24 12:45:12;;;;;;;2.35;0.95;;;;;;;;;;4951421;29;20449;-45
2021/05/24 12:47:39;;;;;;;1.00;0.43;;;;;;;;;;4934938;29;20055;-47
2021/05/24 12:50:13;;;;;;;0.90;0.50;;;;;;;;;;4935266;29;20023;-45
2021/05/24 12:52:41;;;;;;;1.20;0.43;;;;;;;;;;4934742;29;20384;-46
2021/05/24 12:55:15;;;;;;;1.67;0.60;;;;;;;;;;4935637;29;20027;-43
2021/05/24 12:57:44;;;;;;;0.43;0.40;;;;;;;;;;4934600;29;20035;-45
2021/05/24 13:00:11;;;;;;;0.77;0.40;;;;;;;;;;4934355;29;20111;-42
2021/05/24 13:02:38;;;;;;;0.73;0.43;;;;;;;;;;4934324;29;20358;-49
2021/05/24 13:05:11;;;;;;;3.28;0.40;;;;;;;;;;4934784;29;20027;-45
2021/05/24 13:07:52;;;;;;;1.25;0.30;;;;;;;;;;4934114;29;20464;-47
2021/05/24 13:10:20;;;;;;;1.08;0.40;;;;;;;;;;4928170;29;20496;-46
2021/05/24 13:12:49;;;;;;;0.70;0.50;;;;;;;;;;4928495;29;20036;-47
2021/05/24 13:15:31;;;;;;;1.02;0.50;;;;;;;;;;4934564;29;20436;-46
2021/05/24 13:30:44;;;;;;;0.75;0.40;;;;;;;;;;4929797;29;20051;-46
2021/05/24 13:33:49;;;;;;;0.75;0.40;;;;;;;;;;4929778;29;20392;-47
2021/05/24 13:36:17;;;;;;;2.00;0.68;;;;;;;;;;4855691;29;20030;-43
2021/05/24 13:39:02;;;;;;;1.23;0.50;;;;;;;;;;4856254;29;20109;-46
2021/05/24 13:41:30;;;;;;;1.38;0.40;;;;;;;;;;4903829;29;20131;-45
2021/05/24 13:44:00;;;;;;;2.33;0.40;;;;;;;;;;4933642;29;20027;-45
2021/05/24 13:46:28;;;;;;;0.60;0.30;;;;;;;;;;4934442;29;20027;-45
2021/05/24 13:48:55;;;;;;;1.30;0.80;;;;;;;;;;4933913;29;20115;-43
2021/05/24 13:51:23;;;;;;;0.85;0.50;;;;;;;;;;4930711;29;20496;-46
2021/05/24 13:53:51;;;;;;;1.13;0.55;;;;;;;;;;4934117;29;20543;-46
2021/05/24 13:56:18;;;;;;;1.15;0.50;;;;;;;;;;4930665;29;20058;-45
2021/05/24 13:58:46;;;;;;;1.98;0.52;;;;;;;;;;4922247;29;20384;-47
2021/05/24 14:01:13;;;;;;;2.60;0.40;;;;;;;;;;4923107;29;20039;-46
2021/05/24 14:03:41;;;;;;;1.38;0.50;;;;;;;;;;4931676;29;20027;-48
2021/05/24 14:06:08;;;;;;;1.38;0.55;;;;;;;;;;4921754;29;20035;-46
2021/05/24 14:08:35;;;;;;;4.78;0.52;;;;;;;;;;4923091;29;20028;-48
2021/05/24 14:11:03;;;;;;;7.40;0.70;;;;;;;;;;4924861;29;20052;-50
2021/05/24 14:13:30;;;;;;;8.98;0.90;;;;;;;;;;4927826;29;20115;-46
2021/05/24 14:15:57;;;;;;;10.52;0.75;;;;;;;;;;4920533;29;20019;-46
2021/05/24 14:18:24;;;;;;;7.78;0.68;;;;;;;;;;4929305;29;20369;-44
2021/05/24 14:20:51;;;;;;;2.08;0.90;;;;;;;;;;4920037;29;20086;-42
2021/05/24 14:23:18;;;;;;;1.95;0.50;;;;;;;;;;4932289;29;20379;-46
2021/05/24 14:25:45;;;;;;;10.85;0.90;;;;;;;;;;4935984;29;20032;-43
2021/05/24 14:28:13;;;;;;;8.40;1.00;;;;;;;;;;4934360;29;20030;-46
2021/05/24 14:30:40;;;;;;;2.83;0.65;;;;;;;;;;4934536;29;20400;-45
2021/05/24 14:33:07;;;;;;;4.93;0.70;;;;;;;;;;4933479;29;20526;-45
2021/05/24 14:35:37;;;;;;;6.20;0.60;;;;;;;;;;4935504;29;20082;-46
2021/05/24 14:38:08;;;;;;;2.60;0.80;;;;;;;;;;4935799;29;20015;-45
2021/05/24 14:40:35;;;;;;;12.25;0.80;;;;;;;;;;4937519;29;20027;-44
2021/05/24 14:43:03;;;;;;;3.85;0.60;;;;;;;;;;4936629;29;20387;-43
2021/05/24 14:45:30;;;;;;;4.75;0.65;;;;;;;;;;4936863;29;20589;-43
2021/05/24 14:47:57;;;;;;;3.67;0.68;;;;;;;;;;4936263;29;20032;-44
2021/05/24 14:50:26;;;;;;;2.85;0.82;;;;;;;;;;4950700;29;20022;-43
2021/05/24 14:52:59;;;;;;;0.60;0.40;;;;;;;;;;4936576;29;20059;-46
2021/05/24 14:55:25;;;;;;;;;;;;;;;;;;4937541;29;20036;-44
2021/05/24 14:57:52;;;;;;;2.38;0.50;;;;;;;;;;4935757;29;19910;-42
2021/05/24 15:00:20;;;;;;;3.30;0.70;;;;;;;;;;4935410;29;20528;-43
2021/05/24 15:02:47;;;;;;;3.42;0.60;;;;;;;;;;4935317;29;20059;-42
2021/05/24 15:05:14;;;;;;;3.17;0.80;;;;;;;;;;4935155;29;20075;-44
2021/05/24 15:07:41;;;;;;;1.70;0.65;;;;;;;;;;4934800;29;20023;-46